• °C
  • Pobieranie danych...
wx


SEKCJA WYDRUKÓW, pokaż »

METAR EPBY 241100Z 23009KT 7000 OVC003 02/01 Q1033=

METAR EPGD 241100Z 24009KT 9999 BKN003 03/02 Q1030 =

METAR EPKK 241100Z VRB01KT CAVOK M03/M09 Q1035 =

METAR EPKT 241100Z 17005KT CAVOK M02/M07 Q1034 =

METAR EPLB 241100Z 22007KT CAVOK M05/M08 Q1036 =

METAR EPLL 241100Z 21005KT 170V250 9000 BKN027 00/M03 Q1034 =

METAR EPML 241100Z AUTO 15004KT 110V180 9000 NCD M04/M09 Q1036=

METAR EPMO 241100Z 18007KT 9999 FEW020 01/M04 Q1034 =

METAR EPPO 241100Z 22004KT 9999 OVC004 03/02 Q1034 =

METAR EPRA 241100Z 22005KT 160V280 CAVOK M02/M05 Q1035=

METAR EPRZ 241100Z 08003KT 8000 FEW008 M07/M09 Q1036 =

METAR EPSC 241100Z 28008KT 8000 -DZ FEW003 OVC004 05/04 Q1033 =

METAR EPSY 241100Z 22010KT 7000 OVC008 M00/M02 Q1032=

METAR EPWA 241100Z 18005KT 150V210 9999 SCT023 M01/M06 Q1034 NOSIG=

METAR EPWR 241100Z 18003KT 140V230 7000 OVC003 02/01 Q1035 =

METAR EPZG 241100Z 18005KT 160V230 4500 BR BKN004 OVC007 03/03 Q1034
=



Serwisy IMGW-PIB